sensor_id;sensor_type;location;lat;lon;timestamp;pressure;altitude;pressure_sealevel;temperature;humidity
11339;BME280;5724;42.684;23.252;2024-02-21T00:02:22;94995.50;;;4.35;100.00
11339;BME280;5724;42.684;23.252;2024-02-21T00:04:47;94999.28;;;4.34;100.00
11339;BME280;5724;42.684;23.252;2024-02-21T00:07:12;94994.41;;;4.22;100.00
11339;BME280;5724;42.684;23.252;2024-02-21T00:09:38;95008.22;;;4.35;100.00
11339;BME280;5724;42.684;23.252;2024-02-21T00:12:04;94997.19;;;4.31;100.00
11339;BME280;5724;42.684;23.252;2024-02-21T00:14:30;94998.22;;;4.35;100.00
11339;BME280;5724;42.684;23.252;2024-02-21T00:16:56;94993.59;;;4.36;100.00
11339;BME280;5724;42.684;23.252;2024-02-21T00:19:21;94986.09;;;4.19;100.00
11339;BME280;5724;42.684;23.252;2024-02-21T00:21:47;94995.50;;;4.35;100.00
11339;BME280;5724;42.684;23.252;2024-02-21T00:24:12;94996.00;;;4.37;100.00
11339;BME280;5724;42.684;23.252;2024-02-21T00:26:38;94994.00;;;4.29;100.00
11339;BME280;5724;42.684;23.252;2024-02-21T00:29:03;94995.19;;;4.23;100.00
11339;BME280;5724;42.684;23.252;2024-02-21T00:31:29;94992.19;;;4.24;100.00
11339;BME280;5724;42.684;23.252;2024-02-21T00:33:54;94990.41;;;4.20;100.00
11339;BME280;5724;42.684;23.252;2024-02-21T00:36:20;94985.09;;;4.01;100.00
11339;BME280;5724;42.684;23.252;2024-02-21T00:38:45;94990.31;;;3.97;100.00
11339;BME280;5724;42.684;23.252;2024-02-21T00:41:11;94991.59;;;4.14;100.00
11339;BME280;5724;42.684;23.252;2024-02-21T00:43:36;94981.88;;;4.13;100.00
11339;BME280;5724;42.684;23.252;2024-02-21T00:46:02;94987.50;;;4.16;100.00
11339;BME280;5724;42.684;23.252;2024-02-21T00:48:27;94984.91;;;4.25;100.00
11339;BME280;5724;42.684;23.252;2024-02-21T00:50:53;94979.19;;;4.13;100.00
11339;BME280;5724;42.684;23.252;2024-02-21T00:53:18;94987.38;;;4.21;100.00
11339;BME280;5724;42.684;23.252;2024-02-21T00:55:44;94976.16;;;4.28;100.00
11339;BME280;5724;42.684;23.252;2024-02-21T00:58:09;94971.16;;;4.21;100.00
11339;BME280;5724;42.684;23.252;2024-02-21T01:00:35;94972.75;;;4.22;100.00
11339;BME280;5724;42.684;23.252;2024-02-21T01:03:00;94963.53;;;4.23;100.00
11339;BME280;5724;42.684;23.252;2024-02-21T01:05:26;94962.34;;;4.29;100.00
11339;BME280;5724;42.684;23.252;2024-02-21T01:07:54;94966.56;;;4.22;100.00
11339;BME280;5724;42.684;23.252;2024-02-21T01:10:20;94967.25;;;4.14;100.00
11339;BME280;5724;42.684;23.252;2024-02-21T01:12:45;94954.84;;;4.13;100.00
11339;BME280;5724;42.684;23.252;2024-02-21T01:15:11;94953.88;;;4.09;100.00
11339;BME280;5724;42.684;23.252;2024-02-21T01:17:37;94953.75;;;4.14;100.00
11339;BME280;5724;42.684;23.252;2024-02-21T01:20:03;94950.53;;;4.12;100.00
11339;BME280;5724;42.684;23.252;2024-02-21T01:22:31;94954.25;;;4.16;100.00
11339;BME280;5724;42.684;23.252;2024-02-21T01:24:56;94956.75;;;4.26;100.00
11339;BME280;5724;42.684;23.252;2024-02-21T01:27:22;94941.00;;;4.28;100.00
11339;BME280;5724;42.684;23.252;2024-02-21T01:29:47;94956.22;;;4.24;100.00
11339;BME280;5724;42.684;23.252;2024-02-21T01:32:15;94948.00;;;4.29;100.00
11339;BME280;5724;42.684;23.252;2024-02-21T01:34:41;94945.78;;;4.31;100.00
11339;BME280;5724;42.684;23.252;2024-02-21T01:37:06;94938.72;;;4.21;100.00
11339;BME280;5724;42.684;23.252;2024-02-21T01:39:33;94938.31;;;4.28;99.92
11339;BME280;5724;42.684;23.252;2024-02-21T01:41:59;94948.41;;;4.36;100.00
11339;BME280;5724;42.684;23.252;2024-02-21T01:44:25;94944.91;;;4.36;100.00
11339;BME280;5724;42.684;23.252;2024-02-21T01:46:51;94931.66;;;4.34;99.13
11339;BME280;5724;42.684;23.252;2024-02-21T01:49:19;94931.38;;;4.36;99.51
11339;BME280;5724;42.684;23.252;2024-02-21T01:51:45;94937.66;;;4.45;98.92
11339;BME280;5724;42.684;23.252;2024-02-21T01:54:13;94939.44;;;4.49;98.07
11339;BME280;5724;42.684;23.252;2024-02-21T01:56:39;94926.88;;;4.53;97.53
11339;BME280;5724;42.684;23.252;2024-02-21T01:59:05;94931.94;;;4.46;98.86
11339;BME280;5724;42.684;23.252;2024-02-21T02:01:30;94935.94;;;4.49;98.40
11339;BME280;5724;42.684;23.252;2024-02-21T02:03:57;94935.38;;;4.38;98.69
11339;BME280;5724;42.684;23.252;2024-02-21T02:06:24;94934.75;;;4.41;98.50
11339;BME280;5724;42.684;23.252;2024-02-21T02:08:50;94943.34;;;4.43;98.79
11339;BME280;5724;42.684;23.252;2024-02-21T02:11:16;94934.88;;;4.36;99.04
11339;BME280;5724;42.684;23.252;2024-02-21T02:13:42;94935.13;;;4.48;98.60
11339;BME280;5724;42.684;23.252;2024-02-21T02:16:07;94934.66;;;4.46;98.43
11339;BME280;5724;42.684;23.252;2024-02-21T02:18:33;94928.13;;;4.47;97.90
11339;BME280;5724;42.684;23.252;2024-02-21T02:20:58;94926.59;;;4.55;97.17
11339;BME280;5724;42.684;23.252;2024-02-21T02:23:31;94921.28;;;4.50;97.75
11339;BME280;5724;42.684;23.252;2024-02-21T02:25:57;94917.78;;;4.49;98.22
11339;BME280;5724;42.684;23.252;2024-02-21T02:28:22;94919.22;;;4.47;97.37
11339;BME280;5724;42.684;23.252;2024-02-21T02:30:49;94908.38;;;4.47;97.91
11339;BME280;5724;42.684;23.252;2024-02-21T02:33:15;94903.94;;;4.51;97.62
11339;BME280;5724;42.684;23.252;2024-02-21T02:35:43;94915.81;;;4.41;97.52
11339;BME280;5724;42.684;23.252;2024-02-21T02:38:08;94906.78;;;4.46;97.23
11339;BME280;5724;42.684;23.252;2024-02-21T02:40:35;94904.75;;;4.51;97.26
11339;BME280;5724;42.684;23.252;2024-02-21T02:43:01;94907.94;;;4.53;96.84
11339;BME280;5724;42.684;23.252;2024-02-21T02:45:26;94899.03;;;4.53;96.81
11339;BME280;5724;42.684;23.252;2024-02-21T02:47:56;94906.56;;;4.56;96.10
11339;BME280;5724;42.684;23.252;2024-02-21T02:50:26;94909.56;;;4.54;96.78
11339;BME280;5724;42.684;23.252;2024-02-21T02:52:52;94917.69;;;4.54;96.45
11339;BME280;5724;42.684;23.252;2024-02-21T02:55:18;94918.72;;;4.45;96.77
11339;BME280;5724;42.684;23.252;2024-02-21T02:57:44;94915.81;;;4.41;97.21
11339;BME280;5724;42.684;23.252;2024-02-21T03:00:13;94917.41;;;4.42;96.93
11339;BME280;5724;42.684;23.252;2024-02-21T03:02:41;94919.81;;;4.44;96.78
11339;BME280;5724;42.684;23.252;2024-02-21T03:05:20;94914.53;;;4.39;97.15
11339;BME280;5724;42.684;23.252;2024-02-21T03:07:47;94915.88;;;4.27;97.08
11339;BME280;5724;42.684;23.252;2024-02-21T03:10:13;94913.47;;;4.26;97.15
11339;BME280;5724;42.684;23.252;2024-02-21T03:12:39;94920.00;;;4.25;97.19
11339;BME280;5724;42.684;23.252;2024-02-21T03:15:05;94918.09;;;4.12;97.97
11339;BME280;5724;42.684;23.252;2024-02-21T03:17:32;94928.69;;;4.22;97.88
11339;BME280;5724;42.684;23.252;2024-02-21T03:19:59;94928.59;;;4.27;97.63
11339;BME280;5724;42.684;23.252;2024-02-21T03:22:25;94926.06;;;4.30;97.43
11339;BME280;5724;42.684;23.252;2024-02-21T03:24:50;94924.28;;;4.26;97.40
11339;BME280;5724;42.684;23.252;2024-02-21T03:27:16;94910.44;;;4.27;97.67
11339;BME280;5724;42.684;23.252;2024-02-21T03:29:42;94911.25;;;4.28;96.26
11339;BME280;5724;42.684;23.252;2024-02-21T03:32:08;94928.69;;;4.22;96.85
11339;BME280;5724;42.684;23.252;2024-02-21T03:34:34;94926.69;;;4.14;97.24
11339;BME280;5724;42.684;23.252;2024-02-21T03:37:00;94929.47;;;4.22;97.93
11339;BME280;5724;42.684;23.252;2024-02-21T03:39:27;94923.28;;;4.22;97.50
11339;BME280;5724;42.684;23.252;2024-02-21T03:41:52;94928.28;;;4.28;97.34
11339;BME280;5724;42.684;23.252;2024-02-21T03:44:18;94937.28;;;4.38;97.36
11339;BME280;5724;42.684;23.252;2024-02-21T03:46:43;94933.47;;;4.39;97.23
11339;BME280;5724;42.684;23.252;2024-02-21T03:49:09;94948.28;;;4.41;97.34
11339;BME280;5724;42.684;23.252;2024-02-21T03:51:34;94928.94;;;4.34;96.92
11339;BME280;5724;42.684;23.252;2024-02-21T03:54:00;94927.88;;;4.35;97.33
11339;BME280;5724;42.684;23.252;2024-02-21T03:56:26;94947.78;;;4.39;97.64
11339;BME280;5724;42.684;23.252;2024-02-21T03:58:51;94940.78;;;4.38;97.48
11339;BME280;5724;42.684;23.252;2024-02-21T04:01:17;94944.84;;;4.49;96.70
11339;BME280;5724;42.684;23.252;2024-02-21T04:03:45;94935.13;;;4.48;96.34
11339;BME280;5724;42.684;23.252;2024-02-21T04:06:10;94939.13;;;4.51;96.77
11339;BME280;5724;42.684;23.252;2024-02-21T04:08:36;94938.94;;;4.47;96.83
11339;BME280;5724;42.684;23.252;2024-02-21T04:11:02;94942.53;;;4.56;96.44
11339;BME280;5724;42.684;23.252;2024-02-21T04:13:27;94941.59;;;4.61;96.40
11339;BME280;5724;42.684;23.252;2024-02-21T04:15:53;94934.19;;;4.67;95.76
11339;BME280;5724;42.684;23.252;2024-02-21T04:18:19;94933.41;;;4.52;95.84
11339;BME280;5724;42.684;23.252;2024-02-21T04:20:44;94943.03;;;4.58;96.35
11339;BME280;5724;42.684;23.252;2024-02-21T04:23:10;94940.22;;;4.64;95.80
11339;BME280;5724;42.684;23.252;2024-02-21T04:25:36;94935.63;;;4.50;95.75
11339;BME280;5724;42.684;23.252;2024-02-21T04:28:01;94921.13;;;4.46;95.18
11339;BME280;5724;42.684;23.252;2024-02-21T04:30:27;94940.25;;;4.50;94.96
11339;BME280;5724;42.684;23.252;2024-02-21T04:32:52;94937.69;;;4.31;96.16
11339;BME280;5724;42.684;23.252;2024-02-21T04:35:18;94936.13;;;4.02;98.36
11339;BME280;5724;42.684;23.252;2024-02-21T04:37:43;94936.44;;;4.01;98.13
11339;BME280;5724;42.684;23.252;2024-02-21T04:40:10;94942.78;;;3.96;99.11
11339;BME280;5724;42.684;23.252;2024-02-21T04:42:35;94936.94;;;4.03;98.81
11339;BME280;5724;42.684;23.252;2024-02-21T04:45:01;94939.97;;;3.74;100.00
11339;BME280;5724;42.684;23.252;2024-02-21T04:47:27;94945.47;;;3.83;100.00
11339;BME280;5724;42.684;23.252;2024-02-21T04:49:53;94941.25;;;3.63;100.00
11339;BME280;5724;42.684;23.252;2024-02-21T04:52:19;94945.06;;;3.62;100.00
11339;BME280;5724;42.684;23.252;2024-02-21T04:54:44;94945.97;;;3.71;100.00
11339;BME280;5724;42.684;23.252;2024-02-21T04:57:10;94947.38;;;3.82;100.00
11339;BME280;5724;42.684;23.252;2024-02-21T04:59:35;94942.16;;;3.72;100.00
11339;BME280;5724;42.684;23.252;2024-02-21T05:02:01;94938.56;;;3.63;100.00
11339;BME280;5724;42.684;23.252;2024-02-21T05:04:27;94946.59;;;3.68;100.00
11339;BME280;5724;42.684;23.252;2024-02-21T05:06:52;94944.25;;;3.75;100.00
11339;BME280;5724;42.684;23.252;2024-02-21T05:09:18;94930.16;;;3.78;100.00
11339;BME280;5724;42.684;23.252;2024-02-21T05:11:43;94940.38;;;3.81;100.00
11339;BME280;5724;42.684;23.252;2024-02-21T05:14:09;94943.88;;;3.82;99.21
11339;BME280;5724;42.684;23.252;2024-02-21T05:16:34;94941.97;;;3.68;98.75
11339;BME280;5724;42.684;23.252;2024-02-21T05:19:00;94951.19;;;3.81;97.95
11339;BME280;5724;42.684;23.252;2024-02-21T05:21:28;94953.28;;;3.84;98.04
11339;BME280;5724;42.684;23.252;2024-02-21T05:23:54;94955.56;;;4.05;96.35
11339;BME280;5724;42.684;23.252;2024-02-21T05:26:23;94951.38;;;3.98;96.52
11339;BME280;5724;42.684;23.252;2024-02-21T05:28:49;94957.56;;;3.99;96.44
11339;BME280;5724;42.684;23.252;2024-02-21T05:31:16;94957.47;;;4.04;96.28
11339;BME280;5724;42.684;23.252;2024-02-21T05:33:43;94954.56;;;4.00;95.91
11339;BME280;5724;42.684;23.252;2024-02-21T05:36:08;94949.16;;;4.00;95.67
11339;BME280;5724;42.684;23.252;2024-02-21T05:38:34;94955.06;;;4.02;95.38
11339;BME280;5724;42.684;23.252;2024-02-21T05:41:00;94959.66;;;4.16;96.04
11339;BME280;5724;42.684;23.252;2024-02-21T05:43:26;94962.38;;;4.16;94.83
11339;BME280;5724;42.684;23.252;2024-02-21T05:45:52;94950.06;;;4.10;94.58
11339;BME280;5724;42.684;23.252;2024-02-21T05:48:17;94964.25;;;4.29;95.37
11339;BME280;5724;42.684;23.252;2024-02-21T05:50:43;94963.75;;;4.27;95.28
11339;BME280;5724;42.684;23.252;2024-02-21T05:53:08;94964.31;;;4.38;94.36
11339;BME280;5724;42.684;23.252;2024-02-21T05:55:35;94968.13;;;4.37;93.74
11339;BME280;5724;42.684;23.252;2024-02-21T05:58:01;94974.78;;;4.53;93.43
11339;BME280;5724;42.684;23.252;2024-02-21T06:00:28;94981.69;;;4.59;92.33
11339;BME280;5724;42.684;23.252;2024-02-21T06:02:53;94975.97;;;4.60;92.88
11339;BME280;5724;42.684;23.252;2024-02-21T06:05:19;94987.19;;;4.68;92.18
11339;BME280;5724;42.684;23.252;2024-02-21T06:07:45;94990.53;;;4.65;92.32
11339;BME280;5724;42.684;23.252;2024-02-21T06:10:10;94987.75;;;4.78;91.55
11339;BME280;5724;42.684;23.252;2024-02-21T06:12:36;94983.63;;;4.81;91.21
11339;BME280;5724;42.684;23.252;2024-02-21T06:15:01;94989.56;;;4.83;90.97
11339;BME280;5724;42.684;23.252;2024-02-21T06:17:27;94985.00;;;4.92;92.16
11339;BME280;5724;42.684;23.252;2024-02-21T06:19:52;94997.22;;;5.03;90.88
11339;BME280;5724;42.684;23.252;2024-02-21T06:22:18;94999.59;;;5.05;90.94
11339;BME280;5724;42.684;23.252;2024-02-21T06:24:43;95001.81;;;5.03;89.78
11339;BME280;5724;42.684;23.252;2024-02-21T06:27:10;94998.00;;;5.04;90.47
11339;BME280;5724;42.684;23.252;2024-02-21T06:29:37;94991.22;;;4.93;90.54
11339;BME280;5724;42.684;23.252;2024-02-21T06:32:03;95002.22;;;5.18;89.61
11339;BME280;5724;42.684;23.252;2024-02-21T06:34:29;95004.44;;;5.39;89.25
11339;BME280;5724;42.684;23.252;2024-02-21T06:36:54;95012.88;;;5.37;89.79
11339;BME280;5724;42.684;23.252;2024-02-21T06:39:21;95008.09;;;5.34;88.89
11339;BME280;5724;42.684;23.252;2024-02-21T06:41:48;95010.44;;;5.27;90.56
11339;BME280;5724;42.684;23.252;2024-02-21T06:44:18;95013.25;;;5.44;89.32
11339;BME280;5724;42.684;23.252;2024-02-21T06:46:44;95023.16;;;5.49;89.09
11339;BME280;5724;42.684;23.252;2024-02-21T06:49:09;95025.13;;;5.57;89.14
11339;BME280;5724;42.684;23.252;2024-02-21T06:51:42;95008.78;;;5.49;88.40
11339;BME280;5724;42.684;23.252;2024-02-21T06:54:08;95016.81;;;5.54;88.92
11339;BME280;5724;42.684;23.252;2024-02-21T06:56:35;95029.44;;;5.58;88.81
11339;BME280;5724;42.684;23.252;2024-02-21T06:59:01;95017.03;;;5.66;88.08
11339;BME280;5724;42.684;23.252;2024-02-21T07:01:27;95024.50;;;5.60;88.34
11339;BME280;5724;42.684;23.252;2024-02-21T07:03:52;95024.69;;;5.64;88.58
11339;BME280;5724;42.684;23.252;2024-02-21T07:06:18;95029.03;;;5.73;88.57
11339;BME280;5724;42.684;23.252;2024-02-21T07:08:43;95030.78;;;5.69;88.38
11339;BME280;5724;42.684;23.252;2024-02-21T07:11:09;95025.38;;;5.69;87.73
11339;BME280;5724;42.684;23.252;2024-02-21T07:13:34;95033.97;;;5.71;88.02
11339;BME280;5724;42.684;23.252;2024-02-21T07:16:00;95018.16;;;5.65;88.40
11339;BME280;5724;42.684;23.252;2024-02-21T07:18:25;95030.97;;;5.73;88.61
11339;BME280;5724;42.684;23.252;2024-02-21T07:20:52;95034.19;;;5.84;87.82
11339;BME280;5724;42.684;23.252;2024-02-21T07:23:18;95029.53;;;5.75;87.58
11339;BME280;5724;42.684;23.252;2024-02-21T07:25:44;95026.34;;;5.73;88.39
11339;BME280;5724;42.684;23.252;2024-02-21T07:28:09;95034.19;;;5.84;88.04
11339;BME280;5724;42.684;23.252;2024-02-21T07:30:35;95041.28;;;5.93;86.75
11339;BME280;5724;42.684;23.252;2024-02-21T07:33:01;95036.22;;;6.00;86.40
11339;BME280;5724;42.684;23.252;2024-02-21T07:35:26;95040.09;;;6.08;86.14
11339;BME280;5724;42.684;23.252;2024-02-21T07:37:52;95024.31;;;6.10;86.20
11339;BME280;5724;42.684;23.252;2024-02-21T07:40:17;95032.78;;;6.26;85.50
11339;BME280;5724;42.684;23.252;2024-02-21T07:42:43;95035.84;;;6.33;85.56
11339;BME280;5724;42.684;23.252;2024-02-21T07:45:10;95031.09;;;6.39;84.87
11339;BME280;5724;42.684;23.252;2024-02-21T07:47:36;95042.50;;;6.10;85.81
11339;BME280;5724;42.684;23.252;2024-02-21T07:50:03;95038.50;;;6.16;85.38
11339;BME280;5724;42.684;23.252;2024-02-21T07:52:29;95034.31;;;6.01;85.86
11339;BME280;5724;42.684;23.252;2024-02-21T07:54:54;95034.50;;;6.13;85.57
11339;BME280;5724;42.684;23.252;2024-02-21T07:57:20;95023.66;;;6.13;85.44
11339;BME280;5724;42.684;23.252;2024-02-21T07:59:45;95027.06;;;6.27;85.35
11339;BME280;5724;42.684;23.252;2024-02-21T08:02:16;95021.00;;;6.30;84.91
11339;BME280;5724;42.684;23.252;2024-02-21T08:04:42;95031.38;;;6.28;85.12
11339;BME280;5724;42.684;23.252;2024-02-21T08:07:07;95025.97;;;6.28;85.92
11339;BME280;5724;42.684;23.252;2024-02-21T08:09:34;95029.78;;;6.27;85.76
11339;BME280;5724;42.684;23.252;2024-02-21T08:12:00;95022.44;;;6.37;85.48
11339;BME280;5724;42.684;23.252;2024-02-21T08:14:26;95025.31;;;6.31;85.24
11339;BME280;5724;42.684;23.252;2024-02-21T08:16:52;95014.00;;;6.29;84.54
11339;BME280;5724;42.684;23.252;2024-02-21T08:19:21;95022.47;;;6.45;84.14
11339;BME280;5724;42.684;23.252;2024-02-21T08:21:47;95025.19;;;6.45;83.87
11339;BME280;5724;42.684;23.252;2024-02-21T08:24:16;95034.03;;;6.59;83.04
11339;BME280;5724;42.684;23.252;2024-02-21T08:26:43;95033.06;;;6.64;81.34
11339;BME280;5724;42.684;23.252;2024-02-21T08:29:10;95034.28;;;6.41;82.25
11339;BME280;5724;42.684;23.252;2024-02-21T08:31:35;95024.91;;;6.47;80.55
11339;BME280;5724;42.684;23.252;2024-02-21T08:34:01;95030.31;;;6.55;80.90
11339;BME280;5724;42.684;23.252;2024-02-21T08:36:33;95035.91;;;6.50;81.71
11339;BME280;5724;42.684;23.252;2024-02-21T08:38:59;95032.84;;;6.43;81.25
11339;BME280;5724;42.684;23.252;2024-02-21T08:41:32;95029.81;;;6.45;81.90
11339;BME280;5724;42.684;23.252;2024-02-21T08:43:57;95030.00;;;6.48;82.04
11339;BME280;5724;42.684;23.252;2024-02-21T08:46:23;95028.13;;;6.57;82.07
11339;BME280;5724;42.684;23.252;2024-02-21T08:48:54;95027.75;;;6.42;82.48
11339;BME280;5724;42.684;23.252;2024-02-21T08:51:20;95036.16;;;6.23;82.20
11339;BME280;5724;42.684;23.252;2024-02-21T08:53:46;95039.72;;;6.41;82.76
11339;BME280;5724;42.684;23.252;2024-02-21T08:56:11;95027.56;;;6.29;81.65
11339;BME280;5724;42.684;23.252;2024-02-21T08:58:38;95034.94;;;6.38;82.09
11339;BME280;5724;42.684;23.252;2024-02-21T09:01:04;95043.72;;;6.43;82.37
11339;BME280;5724;42.684;23.252;2024-02-21T09:03:31;95044.13;;;6.19;83.27
11339;BME280;5724;42.684;23.252;2024-02-21T09:05:57;95045.19;;;6.10;83.97
11339;BME280;5724;42.684;23.252;2024-02-21T09:08:23;95046.59;;;6.07;83.96
11339;BME280;5724;42.684;23.252;2024-02-21T09:10:49;95026.84;;;6.15;83.40
11339;BME280;5724;42.684;23.252;2024-02-21T09:13:15;95039.34;;;6.25;83.44
11339;BME280;5724;42.684;23.252;2024-02-21T09:15:41;95039.59;;;6.54;83.35
11339;BME280;5724;42.684;23.252;2024-02-21T09:18:06;95048.41;;;6.60;83.17
11339;BME280;5724;42.684;23.252;2024-02-21T09:20:32;95028.53;;;6.42;83.67
11339;BME280;5724;42.684;23.252;2024-02-21T09:22:57;95030.47;;;6.42;85.21
11339;BME280;5724;42.684;23.252;2024-02-21T09:25:22;95028.56;;;6.51;85.61
11339;BME280;5724;42.684;23.252;2024-02-21T09:27:48;95030.03;;;6.66;85.19
11339;BME280;5724;42.684;23.252;2024-02-21T09:30:14;95040.44;;;6.89;85.05
11339;BME280;5724;42.684;23.252;2024-02-21T09:32:40;95028.16;;;7.01;83.86
11339;BME280;5724;42.684;23.252;2024-02-21T09:35:06;95038.53;;;6.99;83.50
11339;BME280;5724;42.684;23.252;2024-02-21T09:37:31;95024.97;;;7.07;83.30
11339;BME280;5724;42.684;23.252;2024-02-21T09:39:57;95044.59;;;6.78;81.65
11339;BME280;5724;42.684;23.252;2024-02-21T09:42:32;95040.75;;;6.71;80.26
11339;BME280;5724;42.684;23.252;2024-02-21T09:45:03;95039.44;;;6.51;81.71
11339;BME280;5724;42.684;23.252;2024-02-21T09:50:07;95023.19;;;6.94;81.76
11339;BME280;5724;42.684;23.252;2024-02-21T09:52:35;95017.09;;;7.23;80.33
11339;BME280;5724;42.684;23.252;2024-02-21T09:55:01;95034.38;;;7.53;77.61
11339;BME280;5724;42.684;23.252;2024-02-21T09:57:27;95040.38;;;7.93;76.99
11339;BME280;5724;42.684;23.252;2024-02-21T09:59:55;95025.88;;;8.10;75.94
11339;BME280;5724;42.684;23.252;2024-02-21T10:02:22;95026.44;;;8.71;74.18
11339;BME280;5724;42.684;23.252;2024-02-21T10:04:47;95020.47;;;8.99;70.94
11339;BME280;5724;42.684;23.252;2024-02-21T10:07:13;95015.72;;;8.66;70.95
11339;BME280;5724;42.684;23.252;2024-02-21T10:09:38;95018.78;;;8.65;70.49
11339;BME280;5724;42.684;23.252;2024-02-21T10:12:09;95026.47;;;8.63;70.67
11339;BME280;5724;42.684;23.252;2024-02-21T10:14:35;95022.63;;;8.64;69.54
11339;BME280;5724;42.684;23.252;2024-02-21T10:17:01;95022.06;;;8.49;69.56
11339;BME280;5724;42.684;23.252;2024-02-21T10:19:28;95011.69;;;8.34;70.77
11339;BME280;5724;42.684;23.252;2024-02-21T10:22:08;95010.56;;;7.97;71.24
11339;BME280;5724;42.684;23.252;2024-02-21T10:24:34;95013.50;;;8.30;70.10
11339;BME280;5724;42.684;23.252;2024-02-21T10:27:05;95000.63;;;8.39;70.74
11339;BME280;5724;42.684;23.252;2024-02-21T10:29:34;94998.41;;;8.41;69.78
11339;BME280;5724;42.684;23.252;2024-02-21T10:32:09;94991.59;;;8.77;68.61
11339;BME280;5724;42.684;23.252;2024-02-21T10:34:36;94990.56;;;8.90;67.91
11339;BME280;5724;42.684;23.252;2024-02-21T10:37:06;94975.91;;;9.36;67.15
11339;BME280;5724;42.684;23.252;2024-02-21T10:39:38;94970.78;;;9.68;64.79
11339;BME280;5724;42.684;23.252;2024-02-21T10:42:04;94963.50;;;9.84;64.44
11339;BME280;5724;42.684;23.252;2024-02-21T10:44:31;94963.28;;;9.77;62.47
11339;BME280;5724;42.684;23.252;2024-02-21T10:46:58;94956.69;;;9.90;61.91
11339;BME280;5724;42.684;23.252;2024-02-21T10:49:25;94952.31;;;10.22;60.73
11339;BME280;5724;42.684;23.252;2024-02-21T10:51:58;94943.28;;;9.85;61.05
11339;BME280;5724;42.684;23.252;2024-02-21T10:57:13;94929.09;;;10.28;57.90
11339;BME280;5724;42.684;23.252;2024-02-21T10:59:40;94930.56;;;10.38;58.06
11339;BME280;5724;42.684;23.252;2024-02-21T11:02:06;94926.81;;;10.55;57.47
11339;BME280;5724;42.684;23.252;2024-02-21T11:04:33;94936.84;;;10.26;57.18
11339;BME280;5724;42.684;23.252;2024-02-21T11:07:05;94925.66;;;10.19;57.53
11339;BME280;5724;42.684;23.252;2024-02-21T11:09:32;94928.44;;;10.44;57.29
11339;BME280;5724;42.684;23.252;2024-02-21T11:11:58;94904.78;;;10.76;56.65
11339;BME280;5724;42.684;23.252;2024-02-21T11:14:26;94917.66;;;10.75;55.92
11339;BME280;5724;42.684;23.252;2024-02-21T11:16:52;94925.09;;;9.77;56.19
11339;BME280;5724;42.684;23.252;2024-02-21T11:19:21;94930.88;;;9.75;56.99
11339;BME280;5724;42.684;23.252;2024-02-21T11:21:47;94918.91;;;9.56;57.46
11339;BME280;5724;42.684;23.252;2024-02-21T11:24:14;94918.88;;;9.10;58.87
11339;BME280;5724;42.684;23.252;2024-02-21T11:26:50;94916.91;;;8.78;58.80
11339;BME280;5724;42.684;23.252;2024-02-21T11:29:23;94908.16;;;8.72;59.20
11339;BME280;5724;42.684;23.252;2024-02-21T11:31:49;94893.81;;;8.63;58.38
11339;BME280;5724;42.684;23.252;2024-02-21T11:34:18;94911.72;;;8.43;58.69
11339;BME280;5724;42.684;23.252;2024-02-21T11:36:52;94909.00;;;8.43;59.59
11339;BME280;5724;42.684;23.252;2024-02-21T11:39:25;94904.03;;;8.45;60.27
11339;BME280;5724;42.684;23.252;2024-02-21T11:42:04;94904.88;;;8.58;60.51
11339;BME280;5724;42.684;23.252;2024-02-21T11:44:31;94909.34;;;8.63;60.38
11339;BME280;5724;42.684;23.252;2024-02-21T11:46:57;94885.19;;;8.40;60.41
11339;BME280;5724;42.684;23.252;2024-02-21T11:49:28;94898.63;;;8.37;61.32
11339;BME280;5724;42.684;23.252;2024-02-21T11:52:00;94896.66;;;8.16;62.07
11339;BME280;5724;42.684;23.252;2024-02-21T11:54:27;94893.97;;;8.08;63.08
11339;BME280;5724;42.684;23.252;2024-02-21T11:56:54;94882.81;;;8.30;62.53
11339;BME280;5724;42.684;23.252;2024-02-21T11:59:19;94898.78;;;8.11;63.25
11339;BME280;5724;42.684;23.252;2024-02-21T12:01:46;94893.19;;;8.07;63.71
11339;BME280;5724;42.684;23.252;2024-02-21T12:04:12;94891.84;;;7.92;64.01
11339;BME280;5724;42.684;23.252;2024-02-21T12:06:39;94880.00;;;8.18;64.64
11339;BME280;5724;42.684;23.252;2024-02-21T12:09:07;94884.75;;;8.00;65.62
11339;BME280;5724;42.684;23.252;2024-02-21T12:11:36;94874.00;;;8.03;64.93
11339;BME280;5724;42.684;23.252;2024-02-21T12:14:02;94888.50;;;8.16;64.83
11339;BME280;5724;42.684;23.252;2024-02-21T12:16:30;94887.63;;;8.03;65.08
11339;BME280;5724;42.684;23.252;2024-02-21T12:18:57;94883.38;;;8.15;64.84
11339;BME280;5724;42.684;23.252;2024-02-21T12:21:40;94875.13;;;8.02;65.37
11339;BME280;5724;42.684;23.252;2024-02-21T12:24:25;94868.31;;;7.88;64.61
11339;BME280;5724;42.684;23.252;2024-02-21T12:26:51;94873.84;;;8.00;64.41
11339;BME280;5724;42.684;23.252;2024-02-21T12:29:20;94860.13;;;7.96;64.35
11339;BME280;5724;42.684;23.252;2024-02-21T12:31:46;94872.22;;;8.08;64.32
11339;BME280;5724;42.684;23.252;2024-02-21T12:34:13;94864.78;;;8.17;64.55
11339;BME280;5724;42.684;23.252;2024-02-21T12:36:44;94863.47;;;8.23;62.77
11339;BME280;5724;42.684;23.252;2024-02-21T12:39:13;94872.88;;;8.04;62.66
11339;BME280;5724;42.684;23.252;2024-02-21T12:41:41;94870.44;;;8.12;62.84
11339;BME280;5724;42.684;23.252;2024-02-21T12:44:08;94870.38;;;8.20;62.48
11339;BME280;5724;42.684;23.252;2024-02-21T12:46:34;94855.31;;;8.23;62.36
11339;BME280;5724;42.684;23.252;2024-02-21T12:49:00;94855.41;;;8.35;62.87
11339;BME280;5724;42.684;23.252;2024-02-21T12:51:26;94861.34;;;8.28;61.35
11339;BME280;5724;42.684;23.252;2024-02-21T12:53:51;94860.28;;;8.21;62.94
11339;BME280;5724;42.684;23.252;2024-02-21T12:56:17;94844.56;;;8.26;63.32
11339;BME280;5724;42.684;23.252;2024-02-21T12:58:42;94855.22;;;8.40;65.33
11339;BME280;5724;42.684;23.252;2024-02-21T13:01:08;94842.03;;;8.21;68.51
11339;BME280;5724;42.684;23.252;2024-02-21T13:03:34;94852.31;;;8.16;69.63
11339;BME280;5724;42.684;23.252;2024-02-21T13:05:59;94857.31;;;7.84;71.30
11339;BME280;5724;42.684;23.252;2024-02-21T13:08:25;94832.09;;;7.75;71.44
11339;BME280;5724;42.684;23.252;2024-02-21T13:10:51;94835.34;;;7.89;72.17
11339;BME280;5724;42.684;23.252;2024-02-21T13:13:17;94835.28;;;7.77;72.94